Terminal Aerodrome Forecast
Issued by NWS

Home | Current Version | Previous Version | Text Only | Print | Product List | Glossary On
Versions: 1 2 3 4 5 6 7 8 9 10 11 12 13 14 15
000
FTUS41 KCAR 221200 AAA
TAFPQI
TAF AMD
KPQI 221230Z 2213/2312 25007G13KT 6SM -SHRA OVC020
     FM221700 28012G20KT P6SM BKN035
     FM222000 28010G18KT P6SM BKN050
      AMD LTD TO CLD VIS AND WIND=

USA.gov is the U.S. government's official web portal to all federal, state and local government web resources and services.